Time;durP1;ratioP1;P1;durP2;ratioP2;P2;SDS_P1;SDS_P2;PMS_P1;PMS_P2;Temp;Humidity;BMP_temperature;BMP_pressure;BME280_temperature;BME280_humidity;BME280_pressure;Samples;Min_cycle;Max_cycle;Signal;HPM_P1;HPM_P2
2022/02/07 00:01:35;;;;;;;0.05;0.00;;;19.40;46.80;;;;;;5042447;28;20591;-46
2022/02/07 00:04:04;;;;;;;0.65;0.20;;;19.40;46.80;;;;;;5037724;28;20086;-52
2022/02/07 00:06:31;;;;;;;0.17;0.00;;;19.40;47.40;;;;;;5044978;28;20045;-50
2022/02/07 00:08:59;;;;;;;1.48;0.00;;;19.40;46.80;;;;;;5041728;28;20510;-45
2022/02/07 00:11:26;;;;;;;1.25;0.10;;;19.30;46.80;;;;;;5049939;28;20053;-51
2022/02/07 00:13:53;;;;;;;0.57;0.00;;;19.30;46.70;;;;;;5045897;28;20389;-45
2022/02/07 00:16:20;;;;;;;0.57;0.20;;;19.40;46.80;;;;;;5038843;28;20045;-49
2022/02/07 00:18:48;;;;;;;0.17;0.10;;;19.30;46.70;;;;;;5051724;28;20045;-49
2022/02/07 00:21:15;;;;;;;0.40;0.20;;;19.30;46.70;;;;;;5043449;28;20052;-48
2022/02/07 00:23:42;;;;;;;1.27;0.05;;;19.30;46.70;;;;;;5059451;28;20037;-47
2022/02/07 00:26:10;;;;;;;0.60;0.10;;;19.30;46.70;;;;;;5045079;28;20422;-47
2022/02/07 00:28:37;;;;;;;0.60;0.00;;;19.30;46.70;;;;;;5050199;28;20140;-48
2022/02/07 00:31:04;;;;;;;1.08;0.05;;;19.30;46.70;;;;;;5045623;28;20421;-47
2022/02/07 00:33:32;;;;;;;0.90;0.10;;;19.30;46.60;;;;;;5048454;28;20044;-47
2022/02/07 00:36:02;;;;;;;0.68;0.08;;;19.30;46.60;;;;;;5044861;28;20050;-50
2022/02/07 00:38:29;;;;;;;1.88;1.05;;;19.30;46.60;;;;;;5044334;28;20037;-51
2022/02/07 00:41:12;;;;;;;0.98;0.10;;;19.30;46.60;;;;;;5046279;28;20127;-50
2022/02/07 00:43:41;;;;;;;0.20;0.00;;;19.30;46.60;;;;;;5040652;28;20049;-45
2022/02/07 00:46:12;;;;;;;0.65;0.10;;;19.20;46.50;;;;;;5051787;28;20056;-45
2022/02/07 00:48:40;;;;;;;0.73;0.10;;;19.30;46.60;;;;;;5050439;28;20123;-47
2022/02/07 00:51:10;;;;;;;1.83;0.10;;;19.30;46.60;;;;;;5041260;28;20045;-50
2022/02/07 00:53:38;;;;;;;0.30;0.00;;;19.20;46.50;;;;;;5048124;28;20048;-49
2022/02/07 00:56:06;;;;;;;0.15;0.10;;;19.20;46.50;;;;;;5046788;28;20040;-49
2022/02/07 00:58:36;;;;;;;0.17;0.00;;;19.20;46.40;;;;;;5046486;28;20131;-48
2022/02/07 01:01:05;;;;;;;0.68;0.00;;;19.20;46.50;;;;;;5040949;28;20041;-48
2022/02/07 01:03:39;;;;;;;0.75;0.10;;;19.20;46.40;;;;;;5043545;28;20041;-46
2022/02/07 01:06:09;;;;;;;0.45;0.10;;;19.20;46.40;;;;;;5056709;28;20045;-46
2022/02/07 01:08:41;;;;;;;0.38;0.10;;;19.20;46.40;;;;;;5047369;28;20052;-48
2022/02/07 01:11:20;;;;;;;2.33;0.00;;;19.20;46.40;;;;;;5062645;28;20074;-47
2022/02/07 01:14:07;;;;;;;0.80;0.25;;;19.20;46.40;;;;;;5042446;28;20036;-46
2022/02/07 01:16:53;;;;;;;0.85;0.10;;;19.20;46.40;;;;;;5042704;28;20117;-46
2022/02/07 01:53:12;;;;;;;0.55;0.50;;;19.00;46.10;;;;;;4909265;29;20084;-51
2022/02/07 01:55:54;;;;;;;1.27;0.20;;;19.00;46.10;;;;;;4919649;28;20055;-50
2022/02/07 01:58:22;;;;;;;0.80;0.10;;;19.00;46.10;;;;;;4974538;28;20060;-47
2022/02/07 02:00:49;;;;;;;0.47;0.17;;;19.00;46.10;;;;;;4983510;28;20518;-49
2022/02/07 02:03:16;;;;;;;0.20;0.10;;;19.00;46.10;;;;;;4991725;28;20064;-49
2022/02/07 02:05:57;;;;;;;3.15;0.10;;;19.00;46.10;;;;;;5006273;28;20139;-52
2022/02/07 02:08:38;;;;;;;0.10;0.10;;;19.00;46.00;;;;;;4994257;28;20438;-47
2022/02/07 02:11:08;;;;;;;1.90;0.32;;;19.00;46.00;;;;;;4987403;28;20454;-50
2022/02/07 02:13:53;;;;;;;0.25;0.00;;;19.00;46.00;;;;;;4982255;28;20151;-50
2022/02/07 02:16:30;;;;;;;1.70;0.10;;;19.00;45.90;;;;;;4988708;28;20053;-46
2022/02/07 02:34:01;;;;;;;0.75;0.20;;;19.00;45.70;;;;;;4982287;28;20065;-48
2022/02/07 02:36:31;;;;;;;5.10;0.35;;;18.90;45.70;;;;;;4979859;28;20124;-49
2022/02/07 02:47:25;;;;;;;1.85;0.10;;;18.90;45.60;;;;;;5003653;28;20056;-45
2022/02/07 02:50:06;;;;;;;0.63;0.00;;;18.90;45.60;;;;;;4990731;28;20482;-48
2022/02/07 02:52:36;;;;;;;0.93;0.22;;;18.90;45.60;;;;;;4987271;28;20099;-51
2022/02/07 02:55:05;;;;;;;1.02;0.90;;;18.90;45.50;;;;;;4996030;28;20565;-48
2022/02/07 02:57:32;;;;;;;0.30;0.30;;;18.90;45.50;;;;;;4988549;28;20137;-49
2022/02/07 03:00:00;;;;;;;1.00;0.30;;;18.90;45.40;;;;;;4960354;28;20046;-52
2022/02/07 03:02:28;;;;;;;0.43;0.05;;;18.90;46.00;;;;;;5017852;28;20049;-47
2022/02/07 03:04:55;;;;;;;1.25;0.10;;;18.90;45.40;;;;;;5046726;28;20163;-45
2022/02/07 03:07:24;;;;;;;0.60;0.10;;;18.90;45.40;;;;;;5038294;28;20045;-46
2022/02/07 03:09:54;;;;;;;0.85;0.35;;;18.90;45.90;;;;;;5043084;28;20102;-49
2022/02/07 03:12:22;;;;;;;0.10;0.00;;;18.90;45.30;;;;;;5050145;28;20119;-50
2022/02/07 03:14:50;;;;;;;0.65;0.10;;;18.90;45.30;;;;;;5047860;28;20201;-48
2022/02/07 03:17:16;;;;;;;1.38;0.20;;;18.80;45.20;;;;;;5053702;28;20053;-49
2022/02/07 03:19:43;;;;;;;1.27;0.05;;;18.80;45.20;;;;;;5041548;28;20033;-47
2022/02/07 03:22:10;;;;;;;3.33;0.10;;;18.90;45.20;;;;;;5037063;28;20053;-48
2022/02/07 03:24:39;;;;;;;0.90;0.10;;;18.80;45.20;;;;;;5058364;28;20052;-50
2022/02/07 03:27:23;;;;;;;2.40;0.20;;;18.80;45.10;;;;;;5055353;28;20626;-44
2022/02/07 03:29:56;;;;;;;0.88;0.08;;;18.80;45.10;;;;;;5043341;28;20049;-46
2022/02/07 03:32:28;;;;;;;0.80;0.00;;;18.80;45.10;;;;;;5048663;28;20107;-48
2022/02/07 03:35:07;;;;;;;0.95;0.10;;;18.80;45.10;;;;;;5054843;28;20049;-46
2022/02/07 03:37:34;;;;;;;0.47;0.17;;;18.80;45.10;;;;;;5047915;28;20041;-49
2022/02/07 03:40:02;;;;;;;0.65;0.10;;;18.80;45.00;;;;;;5050635;28;20032;-44
2022/02/07 03:42:32;;;;;;;0.65;0.13;;;18.80;45.00;;;;;;5047017;28;20045;-46
2022/02/07 03:45:05;;;;;;;1.67;0.10;;;18.80;45.00;;;;;;5045092;28;20045;-44
2022/02/07 03:47:37;;;;;;;0.30;0.10;;;18.80;45.00;;;;;;5047887;28;20045;-46
2022/02/07 03:50:06;;;;;;;0.30;0.10;;;18.80;45.00;;;;;;5043205;28;20048;-45
2022/02/07 03:52:38;;;;;;;0.68;0.00;;;18.80;45.00;;;;;;5041818;28;20060;-45
2022/02/07 03:55:08;;;;;;;1.30;0.10;;;18.70;45.00;;;;;;5044713;28;20566;-49
2022/02/07 03:57:37;;;;;;;0.35;0.00;;;18.70;44.90;;;;;;5052969;28;20064;-50
2022/02/07 04:00:06;;;;;;;3.53;0.10;;;18.70;44.80;;;;;;5053543;28;20506;-51
2022/02/07 04:02:45;;;;;;;2.45;0.20;;;18.70;44.80;;;;;;5052854;28;20597;-48
2022/02/07 04:08:00;;;;;;;1.13;0.10;;;18.70;44.80;;;;;;5047118;28;20804;-47
2022/02/07 04:10:32;;;;;;;1.63;0.00;;;18.70;44.80;;;;;;5040205;28;20048;-47
2022/02/07 04:13:03;;;;;;;1.08;0.10;;;18.70;45.40;;;;;;5047945;28;20052;-49
2022/02/07 04:15:31;;;;;;;2.92;0.10;;;18.70;44.70;;;;;;5046319;28;20033;-49
2022/02/07 04:18:02;;;;;;;0.40;0.35;;;18.70;44.70;;;;;;5044945;28;20424;-46
2022/02/07 04:20:29;;;;;;;0.82;0.10;;;18.70;44.70;;;;;;5049730;28;20068;-47
2022/02/07 04:22:56;;;;;;;1.15;0.10;;;18.70;44.70;;;;;;5041819;28;20460;-49
2022/02/07 04:25:47;;;;;;;0.10;0.10;;;18.70;44.70;;;;;;5045027;28;20426;-46
2022/02/07 04:28:18;;;;;;;0.40;0.40;;;18.70;44.70;;;;;;5043244;28;20037;-49
2022/02/07 04:30:46;;;;;;;1.15;0.57;;;18.70;44.70;;;;;;5041643;28;20514;-48
2022/02/07 04:33:14;;;;;;;2.10;0.20;;;18.70;44.70;;;;;;5053799;28;20064;-53
2022/02/07 04:35:42;;;;;;;2.08;0.10;;;18.70;44.60;;;;;;5049136;28;20045;-45
2022/02/07 04:38:09;;;;;;;0.55;0.10;;;18.70;44.60;;;;;;5050814;28;20045;-45
2022/02/07 04:40:39;;;;;;;3.10;0.20;;;18.70;44.60;;;;;;5042247;28;20052;-47
2022/02/07 04:43:08;;;;;;;0.25;0.10;;;18.70;44.60;;;;;;5038174;28;20045;-48
2022/02/07 04:45:54;;;;;;;2.38;0.20;;;18.70;44.60;;;;;;5051198;28;20426;-49
2022/02/07 04:48:58;;;;;;;3.58;0.68;;;18.70;44.60;;;;;;5055152;28;20076;-48
2022/02/07 04:54:17;;;;;;;1.35;0.30;;;18.60;44.50;;;;;;5039778;28;20079;-44
2022/02/07 04:59:38;;;;;;;0.52;0.10;;;18.60;44.50;;;;;;5052967;28;20043;-47
2022/02/07 05:02:14;;;;;;;1.23;0.10;;;18.60;44.50;;;;;;5045780;28;20051;-49
2022/02/07 05:04:48;;;;;;;1.60;0.20;;;18.60;44.50;;;;;;5052010;28;20543;-49
2022/02/07 05:15:30;;;;;;;1.15;0.32;;;18.60;44.50;;;;;;5045420;28;20049;-44
2022/02/07 05:18:00;;;;;;;1.75;0.10;;;18.50;44.40;;;;;;5044930;28;20401;-49
2022/02/07 05:20:40;;;;;;;1.15;0.40;;;18.60;44.40;;;;;;5047472;28;20083;-48
2022/02/07 05:23:33;;;;;;;0.20;0.10;;;18.50;44.40;;;;;;5042412;28;20045;-49
2022/02/07 05:26:19;;;;;;;0.10;0.10;;;18.60;44.40;;;;;;5051965;28;20053;-48
2022/02/07 05:29:13;;;;;;;1.05;0.10;;;18.50;44.40;;;;;;5049647;28;20045;-47
2022/02/07 05:32:02;;;;;;;2.97;0.10;;;18.50;44.40;;;;;;5046446;28;20130;-49
2022/02/07 05:35:07;;;;;;;2.58;0.25;;;18.50;44.90;;;;;;5013234;28;20057;-45
2022/02/07 05:37:51;;;;;;;;;;;18.50;44.40;;;;;;5003470;28;20054;-45
2022/02/07 05:40:31;;;;;;;0.85;0.30;;;18.50;44.30;;;;;;4986674;28;19921;-45
2022/02/07 05:43:21;;;;;;;0.93;0.08;;;18.50;44.50;;;;;;4987374;28;20131;-45
2022/02/07 05:46:07;;;;;;;2.65;0.10;;;18.40;45.00;;;;;;5001230;28;20127;-47
2022/02/07 05:48:38;;;;;;;2.30;0.10;;;18.50;44.40;;;;;;5002590;28;20673;-47
2022/02/07 05:51:25;;;;;;;0.73;0.30;;;18.50;44.40;;;;;;4996717;28;20049;-51
2022/02/07 05:54:12;;;;;;;0.63;0.63;;;18.50;44.40;;;;;;5000466;28;21364;-44
2022/02/07 05:57:06;;;;;;;0.68;0.35;;;18.50;44.40;;;;;;4944278;28;20073;-45
2022/02/07 05:59:51;;;;;;;3.08;0.15;;;18.50;44.40;;;;;;4944651;28;20067;-46
2022/02/07 06:02:37;;;;;;;1.13;0.22;;;18.50;44.30;;;;;;4955001;28;20058;-46
2022/02/07 06:05:11;;;;;;;1.05;0.10;;;18.50;44.30;;;;;;4947580;28;20138;-46
2022/02/07 06:07:41;;;;;;;1.10;0.98;;;18.50;44.30;;;;;;4944535;28;20527;-48
2022/02/07 06:10:10;;;;;;;0.88;0.10;;;18.50;44.20;;;;;;4945492;28;20446;-46
2022/02/07 06:12:39;;;;;;;0.30;0.10;;;18.50;44.20;;;;;;4961340;28;20047;-45
2022/02/07 06:15:08;;;;;;;1.58;0.10;;;18.50;44.20;;;;;;4947846;28;20039;-45
2022/02/07 06:17:37;;;;;;;4.75;0.10;;;18.50;44.10;;;;;;4914274;28;20058;-50
2022/02/07 06:20:07;;;;;;;0.93;0.10;;;18.50;44.10;;;;;;4952437;28;20126;-45
2022/02/07 06:22:35;;;;;;;1.38;0.10;;;18.50;44.10;;;;;;4955031;28;20059;-50
2022/02/07 06:25:05;;;;;;;5.63;0.47;;;18.50;44.00;;;;;;4952708;28;20488;-45
2022/02/07 06:27:33;;;;;;;1.33;0.17;;;18.50;44.00;;;;;;4943562;28;20059;-44
2022/02/07 06:30:03;;;;;;;1.75;0.20;;;18.50;44.00;;;;;;4953362;28;20165;-45
2022/02/07 06:32:30;;;;;;;0.75;0.20;;;18.50;44.00;;;;;;4944194;28;20135;-49
2022/02/07 06:35:00;;;;;;;3.22;0.10;;;18.50;44.00;;;;;;5029421;28;20095;-43
2022/02/07 06:37:28;;;;;;;0.82;0.10;;;18.50;44.00;;;;;;5043325;28;20048;-45
2022/02/07 06:39:55;;;;;;;0.68;0.10;;;18.50;44.00;;;;;;5042937;28;20045;-48
2022/02/07 06:42:25;;;;;;;2.53;0.10;;;18.50;44.00;;;;;;5079618;28;20056;-45
2022/02/07 06:44:52;;;;;;;1.92;0.10;;;18.50;43.90;;;;;;5042811;28;20101;-47
2022/02/07 06:47:20;;;;;;;0.77;0.10;;;18.50;43.90;;;;;;5044400;28;20064;-47
2022/02/07 06:49:47;;;;;;;1.63;0.10;;;18.50;43.90;;;;;;5045042;28;20049;-45
2022/02/07 06:52:15;;;;;;;1.75;0.32;;;18.50;43.90;;;;;;5045765;28;20040;-46
2022/02/07 06:54:42;;;;;;;2.15;0.10;;;18.50;43.90;;;;;;5052817;28;20056;-47
2022/02/07 06:57:10;;;;;;;0.63;0.10;;;18.50;43.90;;;;;;5054179;28;20116;-49
2022/02/07 06:59:41;;;;;;;1.55;0.13;;;18.50;43.80;;;;;;5048618;28;20041;-49
2022/02/07 07:02:11;;;;;;;0.93;0.20;;;18.50;43.80;;;;;;5056758;28;20045;-48
2022/02/07 07:04:39;;;;;;;1.08;0.20;;;18.40;43.80;;;;;;5054312;28;20143;-52
2022/02/07 07:07:08;;;;;;;3.13;0.57;;;18.50;43.80;;;;;;5047162;28;20413;-47
2022/02/07 07:09:37;;;;;;;3.72;0.10;;;18.40;43.80;;;;;;5055353;28;20076;-48
2022/02/07 07:12:09;;;;;;;2.13;0.10;;;18.50;43.80;;;;;;5051483;28;20083;-48
2022/02/07 07:14:48;;;;;;;3.08;0.10;;;18.40;43.80;;;;;;5048168;28;20127;-48
2022/02/07 07:17:17;;;;;;;1.15;0.10;;;18.50;43.80;;;;;;5065960;28;20528;-48
2022/02/07 07:19:47;;;;;;;2.67;0.57;;;18.40;43.70;;;;;;5044714;28;20049;-50
2022/02/07 07:22:15;;;;;;;1.05;0.10;;;18.50;43.80;;;;;;5051680;28;20052;-46
2022/02/07 07:24:45;;;;;;;0.93;0.60;;;18.40;43.70;;;;;;5046503;28;20061;-52
2022/02/07 07:27:20;;;;;;;2.00;0.17;;;18.40;43.70;;;;;;5047722;28;20041;-50
2022/02/07 07:29:48;;;;;;;3.47;0.10;;;18.40;43.70;;;;;;5054464;28;20457;-48
2022/02/07 07:32:21;;;;;;;1.75;0.63;;;18.40;43.70;;;;;;5052048;28;20136;-50
2022/02/07 07:34:48;;;;;;;3.25;0.20;;;18.40;43.70;;;;;;5049322;28;20056;-46
2022/02/07 07:37:20;;;;;;;1.30;0.17;;;18.40;43.70;;;;;;5046759;28;20152;-50
2022/02/07 07:39:48;;;;;;;2.35;0.22;;;18.40;43.70;;;;;;5046687;28;20539;-49
2022/02/07 07:42:16;;;;;;;0.85;0.10;;;18.50;43.70;;;;;;5045427;28;20041;-47
2022/02/07 07:45:15;;;;;;;1.55;0.10;;;18.40;43.60;;;;;;5004588;28;20112;-49
2022/02/07 07:48:11;;;;;;;1.42;0.20;;;18.40;43.60;;;;;;4998886;28;20051;-48
2022/02/07 07:51:05;;;;;;;1.73;0.13;;;18.40;43.60;;;;;;4953117;28;20166;-49
2022/02/07 07:54:11;;;;;;;0.98;0.20;;;18.40;43.60;;;;;;4946354;28;20065;-46
2022/02/07 08:02:47;;;;;;;1.63;0.15;;;18.40;43.60;;;;;;4945342;28;20524;-46
2022/02/07 08:05:32;;;;;;;1.63;0.20;;;18.50;43.70;;;;;;4947999;28;20048;-48
2022/02/07 08:08:08;;;;;;;1.75;0.73;;;18.50;43.60;;;;;;4949422;28;20445;-51
2022/02/07 08:10:49;;;;;;;4.00;0.10;;;18.50;43.60;;;;;;4950953;28;20700;-47
2022/02/07 08:13:18;;;;;;;2.80;0.13;;;18.50;43.60;;;;;;4953312;28;20062;-47
2022/02/07 08:15:53;;;;;;;2.37;0.17;;;18.50;43.60;;;;;;4952938;28;20055;-51
2022/02/07 08:18:21;;;;;;;0.57;0.20;;;18.50;43.60;;;;;;4946839;28;20313;-49
2022/02/07 08:20:48;;;;;;;2.03;0.32;;;18.50;43.60;;;;;;4949526;28;20047;-51
2022/02/07 08:23:15;;;;;;;1.30;0.10;;;18.50;43.60;;;;;;4967946;28;20057;-52
2022/02/07 08:25:43;;;;;;;0.98;0.20;;;18.50;43.50;;;;;;4967428;28;20093;-52
2022/02/07 08:28:10;;;;;;;1.80;0.28;;;18.50;43.50;;;;;;5003295;28;20072;-50
2022/02/07 08:30:37;;;;;;;1.95;0.20;;;18.50;43.40;;;;;;5043911;28;20041;-52
2022/02/07 08:33:04;;;;;;;2.25;0.30;;;18.50;43.40;;;;;;5045328;28;20096;-51
2022/02/07 08:35:33;;;;;;;2.80;0.40;;;18.60;43.40;;;;;;5049134;28;20056;-52
2022/02/07 08:38:00;;;;;;;3.72;0.40;;;18.60;43.40;;;;;;5054030;28;20046;-51
2022/02/07 08:40:29;;;;;;;3.88;0.38;;;18.60;43.30;;;;;;5050866;28;20056;-46
2022/02/07 08:42:57;;;;;;;2.53;0.32;;;18.60;43.30;;;;;;5040546;28;20060;-48
2022/02/07 08:45:24;;;;;;;0.95;0.20;;;18.60;43.30;;;;;;5056818;28;20044;-48
2022/02/07 08:47:56;;;;;;;5.50;0.30;;;18.60;43.20;;;;;;5046557;28;20061;-49
2022/02/07 08:50:24;;;;;;;2.38;0.30;;;18.60;43.20;;;;;;5054233;28;20427;-47
2022/02/07 08:52:55;;;;;;;3.05;0.20;;;18.70;43.20;;;;;;5047746;28;20048;-48
2022/02/07 08:55:27;;;;;;;2.05;0.30;;;18.70;43.10;;;;;;5055123;28;20135;-50
2022/02/07 08:57:58;;;;;;;3.53;0.45;;;18.70;43.10;;;;;;5056210;28;20040;-47
2022/02/07 09:00:38;;;;;;;3.63;0.30;;;18.70;43.10;;;;;;5045360;28;20041;-48
2022/02/07 09:06:11;;;;;;;1.02;0.15;;;18.70;43.00;;;;;;5041768;28;20045;-54
2022/02/07 09:09:06;;;;;;;1.70;0.32;;;18.70;42.90;;;;;;5046100;28;20107;-51
2022/02/07 09:11:34;;;;;;;2.55;0.60;;;18.70;42.90;;;;;;5049051;28;20041;-55
2022/02/07 09:14:09;;;;;;;0.50;0.10;;;18.80;43.60;;;;;;5048621;28;20139;-49
2022/02/07 09:16:37;;;;;;;0.88;0.15;;;18.80;42.90;;;;;;5049585;28;20049;-50
2022/02/07 09:19:04;;;;;;;4.00;0.47;;;18.80;42.80;;;;;;5055420;28;20057;-48
2022/02/07 09:21:32;;;;;;;2.58;0.20;;;18.80;42.80;;;;;;5045395;28;20092;-52
2022/02/07 09:24:01;;;;;;;0.88;0.43;;;18.80;42.70;;;;;;5042997;28;20398;-52
2022/02/07 09:26:28;;;;;;;2.70;0.45;;;18.90;42.80;;;;;;5050091;28;20053;-53
2022/02/07 09:28:56;;;;;;;5.50;0.30;;;18.90;42.70;;;;;;5045278;28;20033;-46
2022/02/07 09:31:23;;;;;;;2.63;0.20;;;18.90;42.60;;;;;;5048379;28;20505;-52
2022/02/07 09:33:52;;;;;;;0.75;0.20;;;18.90;42.60;;;;;;5056846;28;20094;-53
2022/02/07 09:36:21;;;;;;;3.47;0.30;;;19.00;42.60;;;;;;5055275;28;20044;-50
2022/02/07 09:38:49;;;;;;;0.90;0.10;;;18.90;42.50;;;;;;5043079;28;20045;-48
2022/02/07 09:41:20;;;;;;;1.75;0.17;;;18.90;42.50;;;;;;5044769;28;20049;-51
2022/02/07 09:43:50;;;;;;;1.48;0.20;;;19.00;42.50;;;;;;5053946;28;20040;-47
2022/02/07 09:46:22;;;;;;;0.70;0.20;;;19.00;42.40;;;;;;5038301;28;20052;-50
2022/02/07 09:48:52;;;;;;;4.10;0.32;;;19.00;42.30;;;;;;5049263;28;20094;-48
2022/02/07 09:51:20;;;;;;;3.03;0.50;;;19.00;42.30;;;;;;5045610;28;20041;-52
2022/02/07 09:53:47;;;;;;;1.75;0.45;;;19.10;42.30;;;;;;5047266;28;20086;-50
2022/02/07 09:56:16;;;;;;;3.42;0.17;;;19.10;42.30;;;;;;5049383;28;20055;-50
2022/02/07 09:58:49;;;;;;;6.63;0.45;;;19.10;42.20;;;;;;5045620;28;20049;-49
2022/02/07 10:01:25;;;;;;;1.83;0.30;;;19.10;42.20;;;;;;5043372;28;20048;-48
2022/02/07 10:03:57;;;;;;;2.78;0.60;;;19.20;42.20;;;;;;5058143;28;20792;-48
2022/02/07 10:06:35;;;;;;;4.25;1.63;;;19.20;42.20;;;;;;5049995;28;20048;-52
2022/02/07 10:12:10;;;;;;;3.42;0.75;;;19.30;42.10;;;;;;5041541;28;20049;-47
2022/02/07 10:14:49;;;;;;;4.18;0.98;;;19.30;42.10;;;;;;5048574;28;20051;-48
2022/02/07 10:17:42;;;;;;;7.32;2.05;;;19.30;42.00;;;;;;5053010;28;20060;-51
2022/02/07 10:20:40;;;;;;;5.88;0.60;;;19.30;42.00;;;;;;5046481;28;20044;-49
2022/02/07 10:35:04;;;;;;;5.65;1.77;;;19.50;41.80;;;;;;4984437;28;20313;-46
2022/02/07 10:40:23;;;;;;;8.63;0.98;;;19.50;42.30;;;;;;4976126;28;20047;-49
2022/02/07 10:46:02;;;;;;;6.15;1.13;;;19.60;41.70;;;;;;4989534;28;20223;-50
2022/02/07 10:48:39;;;;;;;5.00;1.08;;;19.70;41.60;;;;;;4977664;28;20711;-51
2022/02/07 10:51:09;;;;;;;5.55;1.50;;;19.70;41.50;;;;;;4979737;28;20047;-49
2022/02/07 10:53:37;;;;;;;5.10;1.02;;;19.70;41.50;;;;;;4993357;28;20054;-51
2022/02/07 10:56:05;;;;;;;5.63;0.95;;;19.80;41.40;;;;;;4981500;28;20586;-50
2022/02/07 10:58:33;;;;;;;9.70;3.08;;;19.80;41.40;;;;;;4973548;28;20046;-49
2022/02/07 11:01:08;;;;;;;5.45;1.45;;;19.80;41.30;;;;;;4994558;28;20043;-51
2022/02/07 11:03:41;;;;;;;2.97;1.17;;;19.90;41.30;;;;;;5042842;28;20099;-46
2022/02/07 11:06:12;;;;;;;8.48;2.22;;;19.90;41.20;;;;;;5045723;28;20513;-47
2022/02/07 11:08:51;;;;;;;4.65;1.67;;;19.90;41.20;;;;;;5047769;28;20122;-51
2022/02/07 11:11:45;;;;;;;8.77;1.35;;;20.00;41.70;;;;;;5045449;28;20152;-51
2022/02/07 11:14:33;;;;;;;5.93;1.33;;;20.10;41.10;;;;;;5044163;28;20051;-48
2022/02/07 11:17:16;;;;;;;7.00;2.28;;;20.10;41.00;;;;;;5043259;28;20045;-52
2022/02/07 11:19:53;;;;;;;4.22;1.55;;;20.20;41.00;;;;;;5044614;28;20037;-51
2022/02/07 11:25:25;;;;;;;7.53;1.38;;;20.30;40.80;;;;;;5041101;28;20049;-50
2022/02/07 11:27:55;;;;;;;4.90;1.30;;;20.40;40.70;;;;;;5041644;28;20620;-48
2022/02/07 11:30:43;;;;;;;6.60;1.20;;;20.40;40.70;;;;;;5040952;28;20025;-51
2022/02/07 11:33:32;;;;;;;5.65;1.50;;;20.50;40.60;;;;;;5042793;28;20529;-47
2022/02/07 11:36:03;;;;;;;7.60;1.65;;;20.50;40.50;;;;;;5041437;28;20044;-50
2022/02/07 11:38:31;;;;;;;4.63;1.38;;;20.60;40.50;;;;;;5043356;28;20044;-54
2022/02/07 11:41:01;;;;;;;4.82;1.15;;;20.60;40.40;;;;;;5044672;28;20043;-51
2022/02/07 11:43:30;;;;;;;5.55;1.25;;;20.70;40.30;;;;;;5048432;28;20128;-49
2022/02/07 11:46:00;;;;;;;5.03;1.08;;;20.70;40.30;;;;;;5037747;28;20568;-49
2022/02/07 11:48:38;;;;;;;4.63;1.05;;;20.80;40.30;;;;;;5041443;28;20080;-51
2022/02/07 11:51:11;;;;;;;8.55;1.17;;;20.90;40.20;;;;;;5048412;28;20787;-50
2022/02/07 11:53:45;;;;;;;5.00;1.00;;;20.90;40.20;;;;;;5050546;28;20513;-48
2022/02/07 11:56:18;;;;;;;3.38;1.05;;;20.90;40.10;;;;;;5063504;28;20044;-50
2022/02/07 11:59:12;;;;;;;4.85;1.17;;;21.00;40.10;;;;;;5051645;28;20532;-50
2022/02/07 12:01:54;;;;;;;3.00;0.40;;;21.00;40.60;;;;;;5050955;28;20064;-49
2022/02/07 12:04:34;;;;;;;3.10;0.82;;;21.10;40.00;;;;;;5047439;28;20037;-47
2022/02/07 12:07:31;;;;;;;6.60;1.48;;;21.20;39.90;;;;;;5039332;28;20593;-47
2022/02/07 12:10:26;;;;;;;2.90;1.23;;;21.20;39.90;;;;;;5042860;28;20513;-49
2022/02/07 12:12:57;;;;;;;3.13;0.52;;;21.30;39.80;;;;;;5033274;28;20429;-46
2022/02/07 12:15:32;;;;;;;4.82;0.60;;;21.30;39.80;;;;;;5043264;28;20045;-50
2022/02/07 12:18:01;;;;;;;3.53;0.30;;;21.40;39.80;;;;;;5055157;28;20062;-47
2022/02/07 12:20:33;;;;;;;2.78;1.00;;;21.40;39.70;;;;;;5043658;28;20497;-52
2022/02/07 12:23:09;;;;;;;2.78;1.02;;;21.50;39.70;;;;;;5042577;28;20067;-48
2022/02/07 12:25:49;;;;;;;4.65;0.60;;;21.60;39.60;;;;;;5043912;28;20053;-48
2022/02/07 12:28:26;;;;;;;1.23;0.50;;;21.60;39.50;;;;;;5037168;28;20038;-48
2022/02/07 12:31:02;;;;;;;1.73;0.80;;;21.60;39.50;;;;;;5034313;28;20531;-50
2022/02/07 12:33:31;;;;;;;2.03;0.50;;;21.70;39.50;;;;;;5048492;28;20063;-47
2022/02/07 12:36:00;;;;;;;2.38;1.20;;;21.70;39.40;;;;;;5050507;28;20052;-48
2022/02/07 12:38:30;;;;;;;3.45;0.70;;;21.80;39.40;;;;;;5045365;28;20404;-51
2022/02/07 12:40:58;;;;;;;4.05;0.52;;;21.90;39.30;;;;;;5040775;28;20064;-51
2022/02/07 12:43:26;;;;;;;3.25;0.98;;;21.90;39.30;;;;;;5044142;28;20033;-48
2022/02/07 12:45:53;;;;;;;2.92;1.00;;;22.00;39.30;;;;;;5052732;28;20052;-49
2022/02/07 12:48:25;;;;;;;1.83;0.63;;;22.00;39.20;;;;;;5043177;28;20036;-51
2022/02/07 12:50:54;;;;;;;4.22;0.45;;;22.10;39.20;;;;;;5044380;28;20952;-44
2022/02/07 12:53:23;;;;;;;2.83;0.55;;;22.10;39.10;;;;;;5052277;28;20038;-47
2022/02/07 12:55:55;;;;;;;4.68;1.42;;;22.20;39.10;;;;;;5039807;28;20048;-49
2022/02/07 12:58:24;;;;;;;3.20;0.40;;;22.20;39.00;;;;;;5054371;28;20074;-50
2022/02/07 13:00:51;;;;;;;3.95;0.85;;;22.20;39.00;;;;;;5051885;28;20045;-49
2022/02/07 13:03:18;;;;;;;0.68;0.40;;;22.20;38.90;;;;;;5047527;28;20047;-47
2022/02/07 13:05:46;;;;;;;2.47;0.20;;;22.30;38.90;;;;;;5050323;28;20691;-47
2022/02/07 13:08:15;;;;;;;2.28;0.90;;;22.30;38.90;;;;;;5040150;28;20045;-46
2022/02/07 13:10:43;;;;;;;1.23;0.38;;;22.30;38.80;;;;;;5044871;28;20045;-46
2022/02/07 13:13:28;;;;;;;1.52;0.35;;;22.40;38.80;;;;;;5037312;28;20034;-44
2022/02/07 13:15:57;;;;;;;0.88;0.20;;;22.40;38.80;;;;;;5039498;28;20106;-47
2022/02/07 13:18:28;;;;;;;3.42;0.22;;;22.50;38.80;;;;;;5041538;28;20045;-50
2022/02/07 13:20:55;;;;;;;3.75;0.95;;;22.50;38.70;;;;;;5045064;28;20489;-46
2022/02/07 13:23:22;;;;;;;3.00;0.25;;;22.60;38.70;;;;;;5049911;28;20040;-49
2022/02/07 13:25:54;;;;;;;2.42;0.22;;;22.60;38.60;;;;;;5045609;28;20072;-44
2022/02/07 13:28:25;;;;;;;0.88;0.15;;;22.70;38.60;;;;;;5046216;28;20049;-48
2022/02/07 13:30:56;;;;;;;1.38;0.30;;;22.70;38.60;;;;;;5041136;28;20045;-49
2022/02/07 13:33:24;;;;;;;0.98;0.13;;;22.70;38.50;;;;;;5042860;28;20040;-47
2022/02/07 13:35:55;;;;;;;3.33;0.45;;;22.80;38.50;;;;;;5050882;28;20501;-49
2022/02/07 13:38:24;;;;;;;1.02;0.38;;;22.80;38.40;;;;;;5052957;28;20584;-49
2022/02/07 13:41:01;;;;;;;1.10;0.30;;;22.90;38.50;;;;;;5048956;28;20421;-46
2022/02/07 13:43:32;;;;;;;1.98;0.20;;;22.90;38.40;;;;;;5038876;28;20036;-47
2022/02/07 13:46:03;;;;;;;2.63;0.80;;;23.00;38.40;;;;;;5037962;28;20033;-47
2022/02/07 13:48:32;;;;;;;0.55;0.13;;;23.00;38.40;;;;;;5051322;28;20091;-49
2022/02/07 13:51:02;;;;;;;0.90;0.30;;;23.10;38.40;;;;;;5047915;28;20486;-49
2022/02/07 13:53:30;;;;;;;0.88;0.10;;;23.00;38.30;;;;;;5051848;28;20045;-48
2022/02/07 13:55:59;;;;;;;2.00;0.20;;;23.10;38.40;;;;;;5042015;28;20513;-48
2022/02/07 13:58:35;;;;;;;1.67;0.80;;;23.10;38.20;;;;;;5041775;28;20052;-50
2022/02/07 14:01:04;;;;;;;2.70;0.10;;;23.20;38.10;;;;;;5048415;28;20041;-47
2022/02/07 14:03:42;;;;;;;1.95;0.28;;;23.30;38.20;;;;;;5041345;28;20037;-46
2022/02/07 14:06:18;;;;;;;1.17;0.57;;;23.30;38.10;;;;;;5045764;28;20063;-50
2022/02/07 14:08:49;;;;;;;0.65;0.10;;;23.30;38.00;;;;;;5045107;28;20102;-48
2022/02/07 14:11:19;;;;;;;2.15;0.25;;;23.30;38.10;;;;;;5045891;28;20174;-49
2022/02/07 14:13:49;;;;;;;1.85;1.27;;;23.30;38.00;;;;;;5040781;28;20119;-50
2022/02/07 14:16:18;;;;;;;2.67;0.55;;;23.40;38.00;;;;;;5049099;28;20144;-46
2022/02/07 14:18:46;;;;;;;0.80;0.17;;;23.40;37.90;;;;;;5051202;28;20136;-47
2022/02/07 14:21:15;;;;;;;1.08;0.43;;;23.40;37.90;;;;;;5050027;28;20040;-47
2022/02/07 14:23:44;;;;;;;0.30;0.30;;;23.50;37.90;;;;;;5053535;28;20126;-44
2022/02/07 14:26:15;;;;;;;0.30;0.10;;;23.50;37.80;;;;;;5041400;28;20085;-48
2022/02/07 14:28:43;;;;;;;2.10;0.47;;;23.50;37.80;;;;;;5048720;28;20404;-47
2022/02/07 14:31:12;;;;;;;1.67;0.45;;;23.50;37.70;;;;;;5041772;28;20038;-46
2022/02/07 14:33:40;;;;;;;0.57;0.57;;;23.60;37.70;;;;;;5032845;28;20045;-47
2022/02/07 14:36:07;;;;;;;0.55;0.10;;;23.60;37.70;;;;;;5038789;28;20676;-48
2022/02/07 14:38:35;;;;;;;2.85;0.38;;;23.60;37.60;;;;;;5040656;28;20048;-47
2022/02/07 14:41:05;;;;;;;3.63;0.20;;;23.60;37.60;;;;;;5042020;28;20049;-48
2022/02/07 14:43:33;;;;;;;1.95;0.30;;;23.60;37.50;;;;;;5035228;28;20051;-45
2022/02/07 14:46:09;;;;;;;0.85;0.40;;;23.60;37.40;;;;;;5039477;28;20041;-48
2022/02/07 14:48:41;;;;;;;0.60;0.57;;;23.70;37.50;;;;;;5059104;28;20041;-47
2022/02/07 14:51:09;;;;;;;1.95;0.30;;;23.70;37.50;;;;;;5042931;28;20037;-48
2022/02/07 14:53:38;;;;;;;2.08;0.10;;;23.70;37.40;;;;;;5041779;28;20174;-49
2022/02/07 14:56:07;;;;;;;0.85;0.40;;;23.70;37.30;;;;;;5044790;28;20136;-50
2022/02/07 14:58:34;;;;;;;1.33;0.30;;;23.80;37.30;;;;;;5038545;28;20045;-49
2022/02/07 15:01:03;;;;;;;0.40;0.10;;;23.80;37.30;;;;;;5053741;28;20068;-49
2022/02/07 15:03:30;;;;;;;2.10;0.57;;;23.80;37.20;;;;;;5049533;28;20124;-47